Time;durP1;ratioP1;P1;durP2;ratioP2;P2;SDS_P1;SDS_P2;PMS_P1;PMS_P2;Temp;Humidity;BMP_temperature;BMP_pressure;BME280_temperature;BME280_humidity;BME280_pressure;Samples;Min_cycle;Max_cycle;Signal;HPM_P1;HPM_P2
2020/12/13 00:01:19;;;;;;;4.40;4.00;;;10.80;99.90;;;;;;5113095;28;20234;-63
2020/12/13 00:03:45;;;;;;;4.93;3.90;;;10.80;99.90;;;;;;5112985;28;20675;-62
2020/12/13 00:06:12;;;;;;;5.77;4.93;;;10.80;99.90;;;;;;5113344;28;20207;-64
2020/12/13 00:08:38;;;;;;;9.13;5.83;;;10.80;99.90;;;;;;5113308;28;20678;-64
2020/12/13 00:11:05;;;;;;;8.23;6.10;;;10.80;99.90;;;;;;5113657;28;20654;-64
2020/12/13 00:13:31;;;;;;;5.17;4.50;;;10.80;99.90;;;;;;5113374;28;20199;-63
2020/12/13 00:15:57;;;;;;;4.83;3.90;;;10.80;99.90;;;;;;5113828;28;20211;-63
2020/12/13 00:18:23;;;;;;;4.83;4.33;;;10.80;99.90;;;;;;5113026;28;20691;-63
2020/12/13 00:20:49;;;;;;;6.23;4.47;;;10.80;99.90;;;;;;5113099;28;20224;-64
2020/12/13 00:23:16;;;;;;;8.10;4.57;;;10.80;99.90;;;;;;5113965;28;20207;-64
2020/12/13 00:25:42;;;;;;;5.10;3.90;;;10.70;99.90;;;;;;5113051;28;20576;-63
2020/12/13 00:28:09;;;;;;;6.20;4.87;;;10.70;99.90;;;;;;5113638;28;20214;-64
2020/12/13 00:30:35;;;;;;;6.50;4.07;;;10.80;99.90;;;;;;5113436;28;20292;-64
2020/12/13 00:33:01;;;;;;;6.07;4.93;;;10.70;99.90;;;;;;5113227;28;20203;-64
2020/12/13 00:35:27;;;;;;;4.67;4.20;;;10.70;99.90;;;;;;5113193;28;20217;-64
2020/12/13 00:37:54;;;;;;;5.37;4.40;;;10.80;99.90;;;;;;5113424;28;20218;-64
2020/12/13 00:40:20;;;;;;;10.50;6.90;;;10.80;99.90;;;;;;5114291;28;20277;-64
2020/12/13 00:42:46;;;;;;;5.40;4.47;;;10.80;99.90;;;;;;5114317;28;20200;-64
2020/12/13 00:45:13;;;;;;;6.47;4.40;;;10.80;99.90;;;;;;5113555;28;20230;-64
2020/12/13 00:47:39;;;;;;;5.83;4.30;;;10.80;99.90;;;;;;5113011;28;20245;-63
2020/12/13 00:50:06;;;;;;;9.83;4.63;;;10.80;99.90;;;;;;5112605;28;20227;-64
2020/12/13 00:52:32;;;;;;;7.13;4.53;;;10.70;99.90;;;;;;5112306;28;20200;-63
2020/12/13 00:54:58;;;;;;;6.40;4.40;;;10.70;99.90;;;;;;5111616;28;20627;-63
2020/12/13 00:57:25;;;;;;;4.70;4.03;;;10.70;99.90;;;;;;5112228;28;20276;-64
2020/12/13 00:59:51;;;;;;;7.00;4.23;;;10.70;99.90;;;;;;5111668;28;20262;-64
2020/12/13 01:02:18;;;;;;;5.70;4.77;;;10.70;99.90;;;;;;5112143;28;20211;-63
2020/12/13 01:04:46;;;;;;;5.23;4.07;;;10.70;99.90;;;;;;5111960;28;20247;-64
2020/12/13 01:07:12;;;;;;;6.90;4.47;;;10.70;99.90;;;;;;5111868;28;20671;-64
2020/12/13 01:09:39;;;;;;;5.90;4.30;;;10.80;99.90;;;;;;5111761;28;20211;-64
2020/12/13 01:12:05;;;;;;;5.40;4.07;;;10.80;99.90;;;;;;5112118;28;20207;-63
2020/12/13 01:14:31;;;;;;;6.43;4.70;;;10.70;99.90;;;;;;5111657;28;20237;-64
2020/12/13 01:16:58;;;;;;;8.00;4.30;;;10.70;99.90;;;;;;5110843;28;20214;-64
2020/12/13 01:19:25;;;;;;;5.10;4.33;;;10.70;99.90;;;;;;5111586;28;20215;-64
2020/12/13 01:21:51;;;;;;;5.20;4.43;;;10.70;99.90;;;;;;5112023;28;20256;-64
2020/12/13 01:24:17;;;;;;;5.50;4.27;;;10.70;99.90;;;;;;5111416;28;20546;-63
2020/12/13 01:26:43;;;;;;;4.90;3.87;;;10.70;99.90;;;;;;5112083;28;20207;-64
2020/12/13 01:29:10;;;;;;;5.13;4.10;;;10.70;99.90;;;;;;5111460;28;20204;-63
2020/12/13 01:31:39;;;;;;;4.37;3.90;;;10.70;99.90;;;;;;5111314;28;20227;-64
2020/12/13 01:34:07;;;;;;;5.17;4.30;;;10.70;99.90;;;;;;5111877;28;20642;-63
2020/12/13 01:36:35;;;;;;;4.27;3.80;;;10.80;99.90;;;;;;5111970;28;20204;-63
2020/12/13 01:39:01;;;;;;;4.57;3.80;;;10.80;99.90;;;;;;5111381;28;20660;-64
2020/12/13 01:41:29;;;;;;;4.57;3.73;;;10.80;99.90;;;;;;5111624;28;20602;-64
2020/12/13 01:44:00;;;;;;;6.87;3.83;;;10.80;99.90;;;;;;5111351;28;20215;-65
2020/12/13 01:46:28;;;;;;;3.83;3.10;;;10.80;99.90;;;;;;5111636;28;20241;-64
2020/12/13 01:48:59;;;;;;;4.87;3.20;;;10.80;99.90;;;;;;5111450;28;20246;-64
2020/12/13 01:51:35;;;;;;;3.50;3.00;;;10.80;99.90;;;;;;5111891;28;20672;-64
2020/12/13 01:54:04;;;;;;;4.60;3.77;;;10.80;99.90;;;;;;5111207;28;20735;-64
2020/12/13 01:56:33;;;;;;;3.43;3.13;;;10.80;99.90;;;;;;5111404;28;20200;-64
2020/12/13 01:59:01;;;;;;;5.17;3.17;;;10.70;99.90;;;;;;5112075;28;20238;-63
2020/12/13 02:01:29;;;;;;;4.03;3.27;;;10.70;99.90;;;;;;5111992;28;20264;-64
2020/12/13 02:03:59;;;;;;;4.43;3.47;;;10.70;99.90;;;;;;5111488;28;20203;-64
2020/12/13 02:06:29;;;;;;;4.40;4.00;;;10.70;99.90;;;;;;5112205;28;20249;-64
2020/12/13 02:08:56;;;;;;;4.20;3.70;;;10.70;99.90;;;;;;5110956;28;20671;-64
2020/12/13 02:11:23;;;;;;;4.93;4.20;;;10.80;99.90;;;;;;5111625;28;20230;-64
2020/12/13 02:13:51;;;;;;;7.17;3.77;;;10.80;99.90;;;;;;5111031;28;20203;-63
2020/12/13 02:16:18;;;;;;;4.73;4.23;;;10.70;99.90;;;;;;5111484;28;20211;-63
2020/12/13 02:18:45;;;;;;;4.37;3.57;;;10.70;99.90;;;;;;5111170;28;20206;-64
2020/12/13 02:21:12;;;;;;;4.07;3.67;;;10.60;99.90;;;;;;5111319;28;20259;-63
2020/12/13 02:23:41;;;;;;;5.10;4.20;;;10.60;99.90;;;;;;5111190;28;20211;-64
2020/12/13 02:26:07;;;;;;;5.43;3.90;;;10.60;99.90;;;;;;5112181;28;20214;-63
2020/12/13 02:28:35;;;;;;;4.27;3.87;;;10.70;99.90;;;;;;5115216;28;20203;-63
2020/12/13 02:31:02;;;;;;;5.50;4.13;;;10.70;99.90;;;;;;5116888;28;20252;-63
2020/12/13 02:33:28;;;;;;;4.43;4.03;;;10.60;99.90;;;;;;5116718;28;20404;-63
2020/12/13 02:35:54;;;;;;;4.60;4.20;;;10.70;99.90;;;;;;5116454;28;20417;-64
2020/12/13 02:38:20;;;;;;;4.90;4.27;;;10.70;99.90;;;;;;5115078;28;20207;-63
2020/12/13 02:40:47;;;;;;;4.60;4.20;;;10.70;99.90;;;;;;5115233;28;20231;-63
2020/12/13 02:43:13;;;;;;;6.87;3.87;;;10.70;99.90;;;;;;5114999;28;20276;-64
2020/12/13 02:45:40;;;;;;;4.63;4.00;;;10.70;99.90;;;;;;5114575;28;20203;-62
2020/12/13 02:48:06;;;;;;;4.27;3.40;;;10.70;99.90;;;;;;5114404;28;20204;-64
2020/12/13 02:50:32;;;;;;;4.60;3.77;;;10.70;99.90;;;;;;5114704;28;20224;-65
2020/12/13 02:52:58;;;;;;;5.30;3.70;;;10.70;99.90;;;;;;5114548;28;20208;-65
2020/12/13 02:55:25;;;;;;;5.67;3.83;;;10.70;99.90;;;;;;5114716;28;20229;-65
2020/12/13 02:57:52;;;;;;;5.60;3.63;;;10.70;99.90;;;;;;5114470;28;20581;-63
2020/12/13 03:00:18;;;;;;;4.83;4.27;;;10.70;99.90;;;;;;5115268;28;20231;-65
2020/12/13 03:02:44;;;;;;;5.93;4.20;;;10.70;99.90;;;;;;5115091;28;20200;-64
2020/12/13 03:05:10;;;;;;;6.33;3.60;;;10.70;99.90;;;;;;5114620;28;20698;-65
2020/12/13 03:07:37;;;;;;;5.67;4.13;;;10.70;99.90;;;;;;5114760;28;20207;-64
2020/12/13 03:10:04;;;;;;;5.50;4.40;;;10.70;99.90;;;;;;5114674;28;20227;-64
2020/12/13 03:12:30;;;;;;;5.30;3.97;;;10.60;99.90;;;;;;5114622;28;20200;-64
2020/12/13 03:14:57;;;;;;;4.47;3.83;;;10.60;99.90;;;;;;5114392;28;20226;-64
2020/12/13 03:17:23;;;;;;;6.03;3.50;;;10.40;99.90;;;;;;5114491;28;20585;-63
2020/12/13 03:19:49;;;;;;;4.17;3.73;;;10.50;99.90;;;;;;5114276;28;20227;-64
2020/12/13 03:22:15;;;;;;;5.30;4.00;;;10.40;99.90;;;;;;5114274;28;20549;-64
2020/12/13 03:24:42;;;;;;;5.23;3.37;;;10.40;99.90;;;;;;5113926;28;20204;-64
2020/12/13 03:27:08;;;;;;;5.70;4.20;;;10.40;99.90;;;;;;5114292;28;20229;-64
2020/12/13 03:29:34;;;;;;;6.00;4.17;;;10.50;99.90;;;;;;5113542;28;20208;-64
2020/12/13 03:32:01;;;;;;;8.97;5.10;;;10.50;99.90;;;;;;5113721;28;20277;-63
2020/12/13 03:34:28;;;;;;;13.93;6.57;;;10.50;99.90;;;;;;5113515;28;20199;-64
2020/12/13 03:36:54;;;;;;;7.93;5.20;;;10.50;99.90;;;;;;5113838;28;20211;-64
2020/12/13 03:39:20;;;;;;;6.13;4.10;;;10.50;99.90;;;;;;5112724;28;20203;-64
2020/12/13 03:41:46;;;;;;;5.63;3.60;;;10.50;99.90;;;;;;5113676;28;20224;-64
2020/12/13 03:44:13;;;;;;;4.67;3.27;;;10.50;99.90;;;;;;5113249;28;20253;-64
2020/12/13 03:46:40;;;;;;;4.93;3.37;;;10.60;99.90;;;;;;5113872;28;20211;-66
2020/12/13 03:49:07;;;;;;;3.57;2.80;;;10.60;99.90;;;;;;5113248;28;20253;-64
2020/12/13 03:51:33;;;;;;;4.23;3.33;;;10.50;99.90;;;;;;5113371;28;20227;-64
2020/12/13 03:53:59;;;;;;;4.07;3.67;;;10.50;99.90;;;;;;5114309;28;20418;-64
2020/12/13 03:56:25;;;;;;;3.90;3.50;;;10.50;99.90;;;;;;5115352;28;20209;-64
2020/12/13 03:58:51;;;;;;;3.73;3.33;;;10.50;99.90;;;;;;5114884;28;20352;-64
2020/12/13 04:01:18;;;;;;;3.63;3.30;;;10.50;99.90;;;;;;5113982;28;20230;-64
2020/12/13 04:03:44;;;;;;;4.60;3.60;;;10.50;99.90;;;;;;5113061;28;20480;-64
2020/12/13 04:06:11;;;;;;;3.87;3.53;;;10.50;99.90;;;;;;5113539;28;20208;-66
2020/12/13 04:08:37;;;;;;;7.40;4.90;;;10.50;99.90;;;;;;5112910;28;20608;-64
2020/12/13 04:11:03;;;;;;;4.17;3.53;;;10.50;99.90;;;;;;5112945;28;20295;-65
2020/12/13 04:13:29;;;;;;;4.17;3.07;;;10.50;99.90;;;;;;5112544;28;20215;-65
2020/12/13 04:15:55;;;;;;;2.83;2.60;;;10.50;99.90;;;;;;5113098;28;20212;-65
2020/12/13 04:18:22;;;;;;;3.63;2.57;;;10.50;99.90;;;;;;5112535;28;20203;-65
2020/12/13 04:20:48;;;;;;;2.83;2.07;;;10.50;99.90;;;;;;5112547;28;20216;-64
2020/12/13 04:23:15;;;;;;;2.80;2.43;;;10.50;99.90;;;;;;5113115;28;20256;-66
2020/12/13 04:25:41;;;;;;;2.67;2.20;;;10.50;99.90;;;;;;5112499;28;20211;-64
2020/12/13 04:28:07;;;;;;;2.80;2.10;;;10.50;99.90;;;;;;5112602;28;20217;-64
2020/12/13 04:30:33;;;;;;;2.40;2.20;;;10.50;99.90;;;;;;5112556;28;20281;-64
2020/12/13 04:32:59;;;;;;;3.33;2.27;;;10.60;99.90;;;;;;5112435;28;20596;-65
2020/12/13 04:35:26;;;;;;;3.30;2.30;;;10.60;99.90;;;;;;5112575;28;20260;-64
2020/12/13 04:37:52;;;;;;;2.63;2.20;;;10.70;99.90;;;;;;5112075;28;20664;-64
2020/12/13 04:40:19;;;;;;;2.47;2.13;;;10.70;99.90;;;;;;5112565;28;20382;-64
2020/12/13 04:42:45;;;;;;;2.37;1.90;;;10.70;99.90;;;;;;5112337;28;20203;-64
2020/12/13 04:45:11;;;;;;;2.83;2.10;;;10.60;99.90;;;;;;5112480;28;20203;-64
2020/12/13 04:47:49;;;;;;;2.47;2.10;;;10.60;99.90;;;;;;5112119;28;20635;-64
2020/12/13 04:50:19;;;;;;;2.53;1.93;;;10.70;99.90;;;;;;5112179;28;20227;-65
2020/12/13 04:52:46;;;;;;;3.20;2.20;;;10.60;99.90;;;;;;5112444;28;20233;-65
2020/12/13 04:55:13;;;;;;;4.37;2.20;;;10.70;99.90;;;;;;5111922;28;20204;-64
2020/12/13 04:57:40;;;;;;;3.50;2.70;;;10.70;99.90;;;;;;5111761;28;20218;-64
2020/12/13 05:00:06;;;;;;;3.10;2.50;;;10.70;99.90;;;;;;5111547;28;20292;-64
2020/12/13 05:02:32;;;;;;;2.80;2.47;;;10.70;99.90;;;;;;5111850;28;20210;-64
2020/12/13 05:04:59;;;;;;;3.20;2.50;;;10.70;99.90;;;;;;5111575;28;20211;-65
2020/12/13 05:07:25;;;;;;;5.37;2.50;;;10.70;99.90;;;;;;5111887;28;20211;-64
2020/12/13 05:09:52;;;;;;;3.70;2.37;;;10.80;99.90;;;;;;5111557;28;20223;-64
2020/12/13 05:12:23;;;;;;;3.43;2.37;;;10.70;99.90;;;;;;5112122;28;20265;-65
2020/12/13 05:14:50;;;;;;;4.03;2.80;;;10.80;99.90;;;;;;5111944;28;20207;-64
2020/12/13 05:17:16;;;;;;;6.13;3.20;;;10.80;99.90;;;;;;5112041;28;20215;-65
2020/12/13 05:19:43;;;;;;;4.27;2.63;;;10.80;99.90;;;;;;5111574;28;20235;-65
2020/12/13 05:22:09;;;;;;;5.97;3.37;;;10.80;99.90;;;;;;5112108;28;20206;-65
2020/12/13 05:24:36;;;;;;;5.37;3.40;;;10.80;99.90;;;;;;5112086;28;20208;-65
2020/12/13 05:27:05;;;;;;;3.33;2.80;;;10.80;99.90;;;;;;5111963;28;20679;-64
2020/12/13 05:29:34;;;;;;;3.30;2.50;;;10.80;99.90;;;;;;5111898;28;20557;-64
2020/12/13 05:32:16;;;;;;;4.53;2.90;;;10.80;99.90;;;;;;5111791;28;20273;-64
2020/12/13 05:34:45;;;;;;;4.53;3.30;;;10.80;99.90;;;;;;5111198;28;20207;-64
2020/12/13 05:37:15;;;;;;;3.83;2.77;;;10.80;99.90;;;;;;5111497;28;20728;-64
2020/12/13 05:39:43;;;;;;;3.30;2.57;;;10.80;99.90;;;;;;5111023;28;20749;-64
2020/12/13 05:42:13;;;;;;;2.90;2.50;;;10.70;99.90;;;;;;5111736;28;20203;-64
2020/12/13 05:44:59;;;;;;;2.57;2.37;;;10.80;99.90;;;;;;5111448;28;20211;-64
2020/12/13 05:47:51;;;;;;;5.83;2.73;;;10.80;99.90;;;;;;5111437;28;20203;-64
2020/12/13 05:50:35;;;;;;;2.50;2.30;;;10.80;99.90;;;;;;5111662;28;20251;-64
2020/12/13 05:53:02;;;;;;;3.93;2.70;;;10.70;99.90;;;;;;5111470;28;20203;-65
2020/12/13 05:55:29;;;;;;;3.53;3.00;;;10.80;99.90;;;;;;5111038;28;20208;-65
2020/12/13 05:57:55;;;;;;;4.33;2.63;;;10.80;99.90;;;;;;5111050;28;20204;-64
2020/12/13 06:00:22;;;;;;;3.03;2.73;;;10.80;99.90;;;;;;5110800;28;20228;-65
2020/12/13 06:02:50;;;;;;;3.03;2.73;;;10.80;99.90;;;;;;5112966;28;20819;-64
2020/12/13 06:05:19;;;;;;;3.40;2.60;;;10.80;99.90;;;;;;5115110;28;20204;-64
2020/12/13 06:07:48;;;;;;;2.93;2.50;;;10.80;99.90;;;;;;5115291;28;20210;-64
2020/12/13 06:10:23;;;;;;;3.43;2.70;;;10.90;99.90;;;;;;5115303;28;20258;-65
2020/12/13 06:12:57;;;;;;;3.03;2.13;;;10.90;99.90;;;;;;5115280;28;20265;-64
2020/12/13 06:15:24;;;;;;;3.30;2.40;;;10.80;99.90;;;;;;5115234;28;20203;-64
2020/12/13 06:17:52;;;;;;;4.67;2.37;;;10.90;99.90;;;;;;5115057;28;20211;-64
2020/12/13 06:20:19;;;;;;;3.20;2.10;;;10.80;99.90;;;;;;5115322;28;20223;-64
2020/12/13 06:22:46;;;;;;;2.40;2.20;;;10.80;99.90;;;;;;5115253;28;20200;-64
2020/12/13 06:25:12;;;;;;;2.40;2.20;;;10.80;99.90;;;;;;5114879;28;20242;-64
2020/12/13 06:27:39;;;;;;;4.97;2.40;;;10.80;99.90;;;;;;5115125;28;20229;-64
2020/12/13 06:30:08;;;;;;;2.43;2.17;;;10.80;99.90;;;;;;5114788;28;20647;-64
2020/12/13 06:32:41;;;;;;;2.10;1.90;;;10.80;99.90;;;;;;5115242;28;20226;-64
2020/12/13 06:35:09;;;;;;;3.03;2.37;;;10.80;99.90;;;;;;5114673;28;20253;-65
2020/12/13 06:37:37;;;;;;;2.70;2.40;;;10.80;99.90;;;;;;5114981;28;20207;-64
2020/12/13 06:40:05;;;;;;;2.53;2.10;;;10.80;99.90;;;;;;5114541;28;20665;-65
2020/12/13 06:42:33;;;;;;;3.50;2.50;;;10.80;99.90;;;;;;5115166;28;20231;-64
2020/12/13 06:45:07;;;;;;;4.93;2.17;;;10.80;99.90;;;;;;5114749;28;20218;-65
2020/12/13 06:47:37;;;;;;;4.33;2.40;;;10.70;99.90;;;;;;5114801;28;20199;-66
2020/12/13 06:50:03;;;;;;;2.77;2.40;;;10.70;99.90;;;;;;5114482;28;20227;-65
2020/12/13 06:52:32;;;;;;;2.60;2.30;;;10.70;99.90;;;;;;5114349;28;20223;-64
2020/12/13 06:55:03;;;;;;;3.00;2.40;;;10.70;99.90;;;;;;5114672;28;20207;-64
2020/12/13 06:57:31;;;;;;;3.47;2.10;;;10.70;99.90;;;;;;5115168;28;20709;-65
2020/12/13 06:59:57;;;;;;;2.43;2.23;;;10.70;99.90;;;;;;5114506;28;20227;-65
2020/12/13 07:02:53;;;;;;;3.37;2.40;;;10.60;99.90;;;;;;5114989;28;20291;-65
2020/12/13 07:05:19;;;;;;;2.40;2.20;;;10.70;99.90;;;;;;5115633;28;20200;-65
2020/12/13 07:07:51;;;;;;;2.90;2.30;;;10.60;99.90;;;;;;5115446;28;20208;-65
2020/12/13 07:10:18;;;;;;;2.50;2.30;;;10.60;99.90;;;;;;5115342;28;20232;-64
2020/12/13 07:12:52;;;;;;;3.33;2.50;;;10.70;99.90;;;;;;5115560;28;20203;-64
2020/12/13 07:15:25;;;;;;;2.60;2.30;;;10.70;99.90;;;;;;5113678;28;20203;-64
2020/12/13 07:17:52;;;;;;;6.67;4.77;;;10.70;99.90;;;;;;5114951;28;20207;-65
2020/12/13 07:20:20;;;;;;;5.60;3.10;;;10.70;99.90;;;;;;5114822;28;20231;-65
2020/12/13 07:22:47;;;;;;;2.93;2.63;;;10.70;99.90;;;;;;5115292;28;20204;-65
2020/12/13 07:25:13;;;;;;;4.07;2.90;;;10.70;99.90;;;;;;5114763;28;20212;-65
2020/12/13 07:27:42;;;;;;;4.23;3.20;;;10.70;99.90;;;;;;5114883;28;20211;-65
2020/12/13 07:30:12;;;;;;;6.87;2.97;;;10.70;99.90;;;;;;5114961;28;20753;-65
2020/12/13 07:32:38;;;;;;;3.13;2.77;;;10.60;99.90;;;;;;5114470;28;20230;-62
2020/12/13 07:35:11;;;;;;;4.97;3.40;;;10.60;99.90;;;;;;5114248;28;20203;-63
2020/12/13 07:37:37;;;;;;;4.53;3.50;;;10.60;99.90;;;;;;5115000;28;20207;-63
2020/12/13 07:40:10;;;;;;;4.00;3.60;;;10.70;99.90;;;;;;5115010;28;20239;-63
2020/12/13 07:42:36;;;;;;;3.67;2.90;;;10.70;99.90;;;;;;5115055;28;20588;-63
2020/12/13 07:45:03;;;;;;;4.43;3.60;;;10.70;99.90;;;;;;5117073;28;20205;-64
2020/12/13 07:47:29;;;;;;;3.53;3.20;;;10.70;99.90;;;;;;5116055;28;20215;-62
2020/12/13 07:50:02;;;;;;;4.70;3.80;;;10.70;99.90;;;;;;5115370;28;20231;-63
2020/12/13 07:52:28;;;;;;;6.47;4.37;;;10.70;99.90;;;;;;5115252;28;20616;-64
2020/12/13 07:55:04;;;;;;;5.17;4.00;;;10.80;99.90;;;;;;5114282;28;20210;-61
2020/12/13 07:57:33;;;;;;;4.97;3.17;;;10.80;99.90;;;;;;5114162;28;20210;-62
2020/12/13 08:00:08;;;;;;;5.00;3.50;;;10.90;99.90;;;;;;5113992;28;20259;-61
2020/12/13 08:02:35;;;;;;;4.67;3.27;;;10.80;99.90;;;;;;5114179;28;20683;-61
2020/12/13 08:05:01;;;;;;;4.33;3.13;;;10.90;99.90;;;;;;5113032;28;20212;-62
2020/12/13 08:07:29;;;;;;;4.00;3.60;;;11.00;99.90;;;;;;5113027;28;20215;-62
2020/12/13 08:09:57;;;;;;;23.63;14.60;;;11.00;99.90;;;;;;5112763;28;20269;-62
2020/12/13 08:12:29;;;;;;;7.30;4.30;;;11.10;99.90;;;;;;5112972;28;20224;-61
2020/12/13 08:14:56;;;;;;;3.93;3.53;;;11.10;99.90;;;;;;5112480;28;20679;-62
2020/12/13 08:17:22;;;;;;;6.17;3.77;;;11.20;99.90;;;;;;5112715;28;20208;-62
2020/12/13 08:19:52;;;;;;;3.23;2.80;;;11.20;99.90;;;;;;5112350;28;20231;-62
2020/12/13 08:22:20;;;;;;;3.50;3.20;;;11.30;99.90;;;;;;5112896;28;20229;-62
2020/12/13 08:24:53;;;;;;;3.87;3.23;;;11.30;99.90;;;;;;5111866;28;20687;-62
2020/12/13 08:27:20;;;;;;;4.27;3.80;;;11.30;99.90;;;;;;5112823;28;20307;-62
2020/12/13 08:29:47;;;;;;;4.40;3.53;;;11.40;99.90;;;;;;5112209;28;20230;-61
2020/12/13 08:32:16;;;;;;;4.80;3.43;;;11.40;99.90;;;;;;5112448;28;20223;-61
2020/12/13 08:34:42;;;;;;;6.13;4.57;;;11.30;99.90;;;;;;5111978;28;20203;-62
2020/12/13 08:37:09;;;;;;;4.43;3.93;;;11.30;99.90;;;;;;5112552;28;20582;-62
2020/12/13 08:39:37;;;;;;;5.87;3.67;;;11.30;99.90;;;;;;5111958;28;20211;-62
2020/12/13 08:42:05;;;;;;;4.83;3.93;;;11.30;99.90;;;;;;5112701;28;20199;-62
2020/12/13 08:44:33;;;;;;;6.23;4.87;;;11.30;99.90;;;;;;5112339;28;20203;-62
2020/12/13 08:47:01;;;;;;;3.90;3.50;;;11.40;99.90;;;;;;5112286;28;20208;-62
2020/12/13 08:49:30;;;;;;;4.57;3.50;;;11.40;99.90;;;;;;5112368;28;20200;-62
2020/12/13 08:51:57;;;;;;;4.10;3.43;;;11.50;99.90;;;;;;5112422;28;20758;-62
2020/12/13 08:54:23;;;;;;;4.90;3.80;;;11.40;99.90;;;;;;5112144;28;20203;-62
2020/12/13 08:56:54;;;;;;;5.53;4.00;;;11.50;99.90;;;;;;5112137;28;20203;-62
2020/12/13 08:59:21;;;;;;;5.27;4.20;;;11.50;99.90;;;;;;5111753;28;20237;-61
2020/12/13 09:01:58;;;;;;;5.20;4.30;;;11.50;99.90;;;;;;5112787;28;20267;-62
2020/12/13 09:04:28;;;;;;;7.43;4.87;;;11.60;99.90;;;;;;5112083;28;20671;-62
2020/12/13 09:06:57;;;;;;;8.90;5.87;;;11.60;99.90;;;;;;5112311;28;20204;-62
2020/12/13 09:09:27;;;;;;;6.77;5.17;;;11.60;99.90;;;;;;5111856;28;20211;-60
2020/12/13 09:11:53;;;;;;;6.97;6.10;;;11.70;99.90;;;;;;5111826;28;20227;-61
2020/12/13 09:14:28;;;;;;;4.07;3.40;;;11.80;99.90;;;;;;5111501;28;20215;-61
2020/12/13 09:16:54;;;;;;;6.87;3.67;;;11.80;99.90;;;;;;5112092;28;20199;-62
2020/12/13 09:19:20;;;;;;;4.77;3.63;;;11.90;99.90;;;;;;5111617;28;20206;-61
2020/12/13 09:21:49;;;;;;;5.00;4.00;;;11.90;99.90;;;;;;5111423;28;20348;-61
2020/12/13 09:24:18;;;;;;;5.00;4.47;;;12.00;99.90;;;;;;5111292;28;20204;-61
2020/12/13 09:27:00;;;;;;;4.50;4.10;;;12.00;99.90;;;;;;5111915;28;20207;-61
2020/12/13 09:29:27;;;;;;;6.67;5.00;;;12.00;99.90;;;;;;5111291;28;20230;-61
2020/12/13 09:31:53;;;;;;;5.47;4.40;;;12.10;99.90;;;;;;5111496;28;20220;-62
2020/12/13 09:34:21;;;;;;;5.03;4.43;;;12.10;99.90;;;;;;5111112;28;20203;-61
2020/12/13 09:36:47;;;;;;;6.13;3.77;;;12.10;99.90;;;;;;5110577;28;20586;-61
2020/12/13 09:39:13;;;;;;;5.67;4.03;;;12.10;99.90;;;;;;5110851;28;20207;-62
2020/12/13 09:41:40;;;;;;;6.60;4.67;;;12.10;99.90;;;;;;5111444;28;20219;-61
2020/12/13 09:44:06;;;;;;;5.90;4.13;;;12.10;99.90;;;;;;5110972;28;20207;-61
2020/12/13 09:46:33;;;;;;;5.23;4.73;;;12.20;99.90;;;;;;5111406;28;20203;-62
2020/12/13 09:48:59;;;;;;;5.13;4.53;;;12.20;99.90;;;;;;5111051;28;20220;-61
2020/12/13 09:51:25;;;;;;;6.73;4.63;;;12.20;99.90;;;;;;5111081;28;20223;-61
2020/12/13 09:53:51;;;;;;;7.70;4.90;;;12.20;99.90;;;;;;5110831;28;20256;-61
2020/12/13 09:56:18;;;;;;;5.87;4.63;;;12.20;99.90;;;;;;5111479;28;20211;-62
2020/12/13 09:58:46;;;;;;;5.30;4.30;;;12.30;99.90;;;;;;5111120;28;20199;-61
2020/12/13 10:01:13;;;;;;;7.23;4.40;;;12.20;99.90;;;;;;5110894;28;20231;-61
2020/12/13 10:03:41;;;;;;;6.43;4.60;;;12.20;99.90;;;;;;5110886;28;20218;-61
2020/12/13 10:06:31;;;;;;;5.40;4.37;;;12.20;99.90;;;;;;5111110;28;20273;-62
2020/12/13 10:09:07;;;;;;;7.70;4.90;;;12.10;99.90;;;;;;5111011;28;20210;-61
2020/12/13 10:11:35;;;;;;;10.93;9.20;;;12.10;99.90;;;;;;5110990;28;20314;-61
2020/12/13 10:14:02;;;;;;;5.23;4.40;;;12.20;99.90;;;;;;5110624;28;20691;-61
2020/12/13 10:16:29;;;;;;;4.57;4.17;;;12.20;99.90;;;;;;5111234;28;20211;-62
2020/12/13 10:18:55;;;;;;;5.87;4.30;;;12.20;99.90;;;;;;5111346;28;20204;-62
2020/12/13 10:21:23;;;;;;;6.27;4.30;;;12.20;99.90;;;;;;5111321;28;20254;-62
2020/12/13 10:23:50;;;;;;;6.53;4.07;;;12.10;99.90;;;;;;5110571;28;20215;-61
2020/12/13 10:26:17;;;;;;;4.87;4.20;;;12.10;99.90;;;;;;5111489;28;20207;-61
2020/12/13 10:28:43;;;;;;;6.57;4.30;;;12.20;99.90;;;;;;5111189;28;20207;-62
2020/12/13 10:31:11;;;;;;;5.63;4.20;;;12.20;99.90;;;;;;5111059;28;20228;-62
2020/12/13 10:33:40;;;;;;;6.13;4.33;;;12.30;99.90;;;;;;5110925;28;20724;-62
2020/12/13 10:36:10;;;;;;;5.03;3.80;;;12.40;99.90;;;;;;5111281;28;20269;-61
2020/12/13 10:38:38;;;;;;;6.30;3.73;;;12.50;99.90;;;;;;5110633;28;20260;-61
2020/12/13 10:41:06;;;;;;;4.87;3.43;;;12.60;99.90;;;;;;5111071;28;20231;-62
2020/12/13 10:43:33;;;;;;;4.67;3.50;;;12.70;99.90;;;;;;5110647;28;20204;-62
2020/12/13 10:46:01;;;;;;;3.90;3.37;;;12.70;99.90;;;;;;5110931;28;20222;-61
2020/12/13 10:48:28;;;;;;;12.50;9.13;;;12.80;99.90;;;;;;5112049;28;20199;-60
2020/12/13 10:50:54;;;;;;;5.73;4.00;;;12.80;99.90;;;;;;5114377;28;20703;-62
2020/12/13 10:53:20;;;;;;;3.83;3.10;;;12.90;99.90;;;;;;5114692;28;20723;-62
2020/12/13 10:55:46;;;;;;;4.70;3.10;;;13.00;99.90;;;;;;5114446;28;20212;-61
2020/12/13 10:58:13;;;;;;;4.57;3.40;;;13.00;99.90;;;;;;5114333;28;20203;-62
2020/12/13 11:00:39;;;;;;;5.90;3.30;;;13.00;99.90;;;;;;5114503;28;20242;-62
2020/12/13 11:03:05;;;;;;;4.10;3.50;;;13.10;99.90;;;;;;5115045;28;20203;-61
2020/12/13 11:05:32;;;;;;;3.73;3.10;;;13.20;99.90;;;;;;5114969;28;20215;-62
2020/12/13 11:07:58;;;;;;;9.57;3.20;;;13.20;99.90;;;;;;5114273;28;20215;-61
2020/12/13 11:10:25;;;;;;;4.80;2.60;;;13.20;99.90;;;;;;5114307;28;20224;-62
2020/12/13 11:12:51;;;;;;;4.60;3.20;;;13.30;99.90;;;;;;5114342;28;20718;-62
2020/12/13 11:15:17;;;;;;;6.73;3.13;;;13.30;99.90;;;;;;5114577;28;20207;-62
2020/12/13 11:17:43;;;;;;;3.53;2.90;;;13.20;99.90;;;;;;5114244;28;20206;-62
2020/12/13 11:20:10;;;;;;;5.37;3.00;;;13.20;99.90;;;;;;5114201;28;20277;-62
2020/12/13 11:22:37;;;;;;;4.77;3.07;;;13.20;99.90;;;;;;5114626;28;20203;-62
2020/12/13 11:25:03;;;;;;;3.87;2.93;;;13.20;99.90;;;;;;5114066;28;20204;-62
2020/12/13 11:27:29;;;;;;;5.20;2.70;;;13.30;99.90;;;;;;5113758;28;20207;-62
2020/12/13 11:29:56;;;;;;;4.57;3.23;;;13.20;99.90;;;;;;5114207;28;20231;-63
2020/12/13 11:32:24;;;;;;;5.60;3.43;;;13.20;99.90;;;;;;5113939;28;20234;-62
2020/12/13 11:34:51;;;;;;;5.57;3.93;;;13.10;99.90;;;;;;5113574;28;20207;-62
2020/12/13 11:37:17;;;;;;;4.50;3.70;;;13.20;99.90;;;;;;5113915;28;20199;-62
2020/12/13 11:39:44;;;;;;;5.17;3.60;;;13.20;99.90;;;;;;5113633;28;20361;-62
2020/12/13 11:42:11;;;;;;;8.83;7.20;;;13.30;99.90;;;;;;5113897;28;20208;-62
2020/12/13 11:44:37;;;;;;;9.53;7.27;;;13.40;99.90;;;;;;5113519;28;20200;-62
2020/12/13 11:47:03;;;;;;;8.60;6.40;;;13.40;99.90;;;;;;5113607;28;20203;-62
2020/12/13 11:49:30;;;;;;;4.93;3.60;;;13.60;99.90;;;;;;5113113;28;20675;-62
2020/12/13 11:51:56;;;;;;;6.40;4.10;;;13.70;99.90;;;;;;5113901;28;20227;-62
2020/12/13 11:54:23;;;;;;;4.90;3.10;;;13.80;99.90;;;;;;5113416;28;20702;-64
2020/12/13 11:56:50;;;;;;;5.30;2.63;;;13.80;99.90;;;;;;5113773;28;20240;-62
2020/12/13 11:59:16;;;;;;;6.10;2.60;;;13.70;99.90;;;;;;5101278;28;20246;-60
2020/12/13 12:01:43;;;;;;;5.97;3.17;;;13.40;99.90;;;;;;5092074;28;20228;-62
2020/12/13 12:04:10;;;;;;;5.07;2.80;;;13.40;99.90;;;;;;5092589;28;20482;-61
2020/12/13 12:06:36;;;;;;;6.23;3.10;;;13.40;99.90;;;;;;5092978;28;20204;-62
2020/12/13 12:09:03;;;;;;;4.87;2.70;;;13.40;99.90;;;;;;5092059;28;20204;-62
2020/12/13 12:11:29;;;;;;;4.90;2.97;;;13.50;99.90;;;;;;5093107;28;20250;-62
2020/12/13 12:13:56;;;;;;;3.57;2.03;;;13.60;99.90;;;;;;5092907;28;20250;-60
2020/12/13 12:16:27;;;;;;;3.77;2.50;;;13.70;99.90;;;;;;5092637;28;20586;-61
2020/12/13 12:18:54;;;;;;;2.90;1.77;;;13.70;99.90;;;;;;5092547;28;20204;-62
2020/12/13 12:21:22;;;;;;;5.30;2.13;;;13.80;99.90;;;;;;5092455;28;20736;-61
2020/12/13 12:23:49;;;;;;;5.83;2.00;;;13.80;99.90;;;;;;5091749;28;20208;-61
2020/12/13 12:26:16;;;;;;;4.13;1.83;;;13.70;99.90;;;;;;5092121;28;20210;-60
2020/12/13 12:28:42;;;;;;;3.67;2.10;;;13.70;99.90;;;;;;5092159;28;20204;-62
2020/12/13 12:31:09;;;;;;;3.83;1.83;;;13.60;99.90;;;;;;5092211;28;20573;-60
2020/12/13 12:33:35;;;;;;;3.30;2.13;;;13.60;99.90;;;;;;5092136;28;20664;-61
2020/12/13 12:36:02;;;;;;;2.30;1.97;;;13.60;99.90;;;;;;5092179;28;20208;-59
2020/12/13 12:38:28;;;;;;;2.50;1.83;;;13.50;99.90;;;;;;5091948;28;20596;-60
2020/12/13 12:40:54;;;;;;;4.13;1.50;;;13.40;99.90;;;;;;5092070;28;20232;-58
2020/12/13 12:43:20;;;;;;;4.13;1.90;;;13.40;99.90;;;;;;5092187;28;20204;-59
2020/12/13 12:45:46;;;;;;;2.97;1.87;;;13.30;99.90;;;;;;5091725;28;20200;-60
2020/12/13 12:48:15;;;;;;;4.80;1.60;;;13.00;99.90;;;;;;5091328;28;20625;-60